Hlavní strana
METAR-TAF:

METAR-TAF

Letiště :

Letiště Macujama

Macujama, Japonsko

zeměpisná šířka: 33-49N, zeměpisná délka: 132-42E, výška: 4 m

Aktuální stav počasí

Zpráva byla vytvořena před 32 minutami, v 01:00 UTC
vítr z různých směrů 3 kt
Teplota 8°C
Vlhkost vzduchu 61%
Tlak 1031 hPa
Viditelnost 10 km a více
Skoro jasno ve výšce 3000 ft
Polojasno ve výšce 13000 ft
Oblačno až skoro zataženo ve výšce 16000 ft

METAR: RJOM 200100Z VRB03KT 9999 FEW030 SCT130 BKN160 08/01 Q1031

Čas: 10:32 (01:32 UTC)

Předpověď počasí

Zpráva byla vytvořena před 2 hodinami a 27 minutami, v 23:05 UTC
Předpověď platná od 20 v 00 UTC do 21 v 06 UTC
Severní vítr 11 kt
Viditelnost 10 km a více
Skoro jasno ve výšce 3500 ft
Polojasno ve výšce 6000 ft
Změna
od 20 v 09 UTC do 20 v 11 UTC
Východojihovýchodní vítr 9 kt
Změna
od 21 v 00 UTC do 21 v 03 UTC
Severoseverozápadní vítr 10 kt

TAF: RJOM 192305Z 2000/2106 35011KT 9999 FEW035 SCT060 BECMG 2009/2011 12009KT BECMG 2100/2103 34010KT

Stav a předpovědi počasí z více než 4 000 letišť (zprávy METAR a TAF).

Červené a žluté tečky na mapě představují dostupné meteorologické stanice.

Když kurzor umístíte na tečku, zobrazí se název stanice.

Pak kliknutím zobrazíte stav a předpověď počasí.

Chcete-li změnit mapu, kliknutím na zelené tlačítko se znaménkem +mapu přiblížíte, kliknutím na zelené tlačítko se znaménkem – mapu oddálíte a kliknutím na zelené šipky přejdete na sousední mapy.


METAR-TAF: